sensor_id;sensor_type;location;lat;lon;timestamp;temperature;humidity
46490;DHT22;32204;49.160;8.580;2023-05-10T00:00:33;15.10;99.90
46490;DHT22;32204;49.160;8.580;2023-05-10T00:02:58;15.00;99.90
46490;DHT22;32204;49.160;8.580;2023-05-10T00:05:24;15.00;99.90
46490;DHT22;32204;49.160;8.580;2023-05-10T00:07:49;15.00;99.90
46490;DHT22;32204;49.160;8.580;2023-05-10T00:10:15;15.10;99.90
46490;DHT22;32204;49.160;8.580;2023-05-10T00:12:41;15.00;99.90
46490;DHT22;32204;49.160;8.580;2023-05-10T00:15:07;15.10;99.90
46490;DHT22;32204;49.160;8.580;2023-05-10T00:17:33;15.10;99.90
46490;DHT22;32204;49.160;8.580;2023-05-10T00:19:59;15.10;99.90
46490;DHT22;32204;49.160;8.580;2023-05-10T00:22:24;15.20;99.90
46490;DHT22;32204;49.160;8.580;2023-05-10T00:24:50;15.10;99.90
46490;DHT22;32204;49.160;8.580;2023-05-10T00:27:15;15.10;99.90
46490;DHT22;32204;49.160;8.580;2023-05-10T00:29:41;15.20;99.90
46490;DHT22;32204;49.160;8.580;2023-05-10T00:32:07;15.20;99.90
46490;DHT22;32204;49.160;8.580;2023-05-10T00:34:32;15.20;99.90
46490;DHT22;32204;49.160;8.580;2023-05-10T00:36:58;15.20;99.90
46490;DHT22;32204;49.160;8.580;2023-05-10T00:39:24;15.00;99.90
46490;DHT22;32204;49.160;8.580;2023-05-10T00:41:49;15.00;99.90
46490;DHT22;32204;49.160;8.580;2023-05-10T00:44:15;14.90;99.90
46490;DHT22;32204;49.160;8.580;2023-05-10T00:46:41;14.90;99.90
46490;DHT22;32204;49.160;8.580;2023-05-10T00:49:07;14.90;99.90
46490;DHT22;32204;49.160;8.580;2023-05-10T00:51:33;14.80;99.90
46490;DHT22;32204;49.160;8.580;2023-05-10T00:53:59;14.80;99.90
46490;DHT22;32204;49.160;8.580;2023-05-10T00:56:25;14.80;99.90
46490;DHT22;32204;49.160;8.580;2023-05-10T00:58:50;14.80;99.90
46490;DHT22;32204;49.160;8.580;2023-05-10T01:01:16;14.70;99.90
46490;DHT22;32204;49.160;8.580;2023-05-10T01:03:42;14.80;99.90
46490;DHT22;32204;49.160;8.580;2023-05-10T01:06:08;14.70;99.90
46490;DHT22;32204;49.160;8.580;2023-05-10T01:08:35;14.60;99.90
46490;DHT22;32204;49.160;8.580;2023-05-10T01:11:01;14.60;99.90
46490;DHT22;32204;49.160;8.580;2023-05-10T01:13:32;14.50;99.90
46490;DHT22;32204;49.160;8.580;2023-05-10T01:15:59;14.50;99.90
46490;DHT22;32204;49.160;8.580;2023-05-10T01:18:29;14.50;99.90
46490;DHT22;32204;49.160;8.580;2023-05-10T01:24:17;14.50;99.90
46490;DHT22;32204;49.160;8.580;2023-05-10T01:35:26;14.40;99.90
46490;DHT22;32204;49.160;8.580;2023-05-10T01:38:15;14.50;99.90
46490;DHT22;32204;49.160;8.580;2023-05-10T01:40:58;14.50;99.90
46490;DHT22;32204;49.160;8.580;2023-05-10T01:43:35;14.50;99.90
46490;DHT22;32204;49.160;8.580;2023-05-10T01:46:14;14.50;99.90
46490;DHT22;32204;49.160;8.580;2023-05-10T01:48:47;14.60;99.90
46490;DHT22;32204;49.160;8.580;2023-05-10T01:51:21;14.60;99.90
46490;DHT22;32204;49.160;8.580;2023-05-10T01:53:48;14.70;99.90
46490;DHT22;32204;49.160;8.580;2023-05-10T01:56:16;14.60;99.90
46490;DHT22;32204;49.160;8.580;2023-05-10T01:58:44;14.60;99.90
46490;DHT22;32204;49.160;8.580;2023-05-10T02:01:13;14.60;99.90
46490;DHT22;32204;49.160;8.580;2023-05-10T02:03:40;14.60;99.90
46490;DHT22;32204;49.160;8.580;2023-05-10T02:06:09;14.50;99.90
46490;DHT22;32204;49.160;8.580;2023-05-10T02:08:36;14.50;99.90
46490;DHT22;32204;49.160;8.580;2023-05-10T02:11:03;14.50;99.90
46490;DHT22;32204;49.160;8.580;2023-05-10T02:13:32;14.50;99.90
46490;DHT22;32204;49.160;8.580;2023-05-10T02:16:01;14.50;99.90
46490;DHT22;32204;49.160;8.580;2023-05-10T02:18:29;14.50;99.90
46490;DHT22;32204;49.160;8.580;2023-05-10T02:20:58;14.50;99.90
46490;DHT22;32204;49.160;8.580;2023-05-10T02:23:25;14.40;99.90
46490;DHT22;32204;49.160;8.580;2023-05-10T02:25:51;14.40;99.90
46490;DHT22;32204;49.160;8.580;2023-05-10T02:28:19;14.40;99.90
46490;DHT22;32204;49.160;8.580;2023-05-10T02:30:47;14.50;99.90
46490;DHT22;32204;49.160;8.580;2023-05-10T02:33:13;14.50;99.90
46490;DHT22;32204;49.160;8.580;2023-05-10T02:35:39;14.50;99.90
46490;DHT22;32204;49.160;8.580;2023-05-10T02:38:06;14.50;99.90
46490;DHT22;32204;49.160;8.580;2023-05-10T02:40:33;14.50;99.90
46490;DHT22;32204;49.160;8.580;2023-05-10T02:42:59;14.50;99.90
46490;DHT22;32204;49.160;8.580;2023-05-10T02:45:30;14.60;99.90
46490;DHT22;32204;49.160;8.580;2023-05-10T02:47:56;14.70;99.90
46490;DHT22;32204;49.160;8.580;2023-05-10T02:50:27;14.80;99.90
46490;DHT22;32204;49.160;8.580;2023-05-10T02:53:01;14.80;99.90
46490;DHT22;32204;49.160;8.580;2023-05-10T02:55:34;14.70;99.90
46490;DHT22;32204;49.160;8.580;2023-05-10T02:58:01;14.80;99.90
46490;DHT22;32204;49.160;8.580;2023-05-10T03:00:27;14.80;99.90
46490;DHT22;32204;49.160;8.580;2023-05-10T03:02:53;14.80;99.90
46490;DHT22;32204;49.160;8.580;2023-05-10T03:05:19;14.80;99.90
46490;DHT22;32204;49.160;8.580;2023-05-10T03:07:46;14.90;99.90
46490;DHT22;32204;49.160;8.580;2023-05-10T03:10:12;14.90;99.90
46490;DHT22;32204;49.160;8.580;2023-05-10T03:15:30;14.80;99.90
46490;DHT22;32204;49.160;8.580;2023-05-10T03:18:07;14.70;99.90
46490;DHT22;32204;49.160;8.580;2023-05-10T03:20:48;14.60;99.90
46490;DHT22;32204;49.160;8.580;2023-05-10T03:23:26;14.60;99.90
46490;DHT22;32204;49.160;8.580;2023-05-10T03:25:53;14.70;99.90
46490;DHT22;32204;49.160;8.580;2023-05-10T03:28:20;14.70;99.90
46490;DHT22;32204;49.160;8.580;2023-05-10T03:30:46;14.60;99.90
46490;DHT22;32204;49.160;8.580;2023-05-10T03:33:12;14.60;99.90
46490;DHT22;32204;49.160;8.580;2023-05-10T03:35:38;14.50;99.90
46490;DHT22;32204;49.160;8.580;2023-05-10T03:38:04;14.60;99.90
46490;DHT22;32204;49.160;8.580;2023-05-10T03:40:30;14.60;99.90
46490;DHT22;32204;49.160;8.580;2023-05-10T03:42:58;14.60;99.90
46490;DHT22;32204;49.160;8.580;2023-05-10T03:45:23;14.60;99.90
46490;DHT22;32204;49.160;8.580;2023-05-10T03:47:49;14.60;99.90
46490;DHT22;32204;49.160;8.580;2023-05-10T03:50:14;14.70;99.90
46490;DHT22;32204;49.160;8.580;2023-05-10T03:52:40;14.80;99.90
46490;DHT22;32204;49.160;8.580;2023-05-10T03:55:06;14.80;99.90
46490;DHT22;32204;49.160;8.580;2023-05-10T03:57:33;14.80;99.90
46490;DHT22;32204;49.160;8.580;2023-05-10T03:59:59;14.70;99.90
46490;DHT22;32204;49.160;8.580;2023-05-10T04:02:25;14.80;99.90
46490;DHT22;32204;49.160;8.580;2023-05-10T04:04:50;14.90;99.90
46490;DHT22;32204;49.160;8.580;2023-05-10T04:07:16;14.80;99.90
46490;DHT22;32204;49.160;8.580;2023-05-10T04:09:41;14.80;99.90
46490;DHT22;32204;49.160;8.580;2023-05-10T04:12:07;14.80;99.90
46490;DHT22;32204;49.160;8.580;2023-05-10T04:14:33;14.80;99.90
46490;DHT22;32204;49.160;8.580;2023-05-10T04:16:58;14.80;99.90
46490;DHT22;32204;49.160;8.580;2023-05-10T04:19:28;14.80;99.90
46490;DHT22;32204;49.160;8.580;2023-05-10T04:21:54;14.70;99.90
46490;DHT22;32204;49.160;8.580;2023-05-10T04:24:19;14.70;99.90
46490;DHT22;32204;49.160;8.580;2023-05-10T04:26:45;14.60;99.90
46490;DHT22;32204;49.160;8.580;2023-05-10T04:29:11;14.60;99.90
46490;DHT22;32204;49.160;8.580;2023-05-10T04:31:36;14.50;99.90
46490;DHT22;32204;49.160;8.580;2023-05-10T04:34:02;14.50;99.90
46490;DHT22;32204;49.160;8.580;2023-05-10T04:36:27;14.50;99.90
46490;DHT22;32204;49.160;8.580;2023-05-10T04:38:54;14.50;99.90
46490;DHT22;32204;49.160;8.580;2023-05-10T04:41:19;14.60;99.90
46490;DHT22;32204;49.160;8.580;2023-05-10T04:43:46;14.60;99.90
46490;DHT22;32204;49.160;8.580;2023-05-10T04:46:12;14.70;99.90
46490;DHT22;32204;49.160;8.580;2023-05-10T04:48:37;14.70;99.90
46490;DHT22;32204;49.160;8.580;2023-05-10T04:51:03;14.60;99.90
46490;DHT22;32204;49.160;8.580;2023-05-10T04:53:29;14.60;99.90
46490;DHT22;32204;49.160;8.580;2023-05-10T04:55:55;14.60;99.90
46490;DHT22;32204;49.160;8.580;2023-05-10T04:58:20;14.60;99.90
46490;DHT22;32204;49.160;8.580;2023-05-10T05:00:46;14.70;99.90
46490;DHT22;32204;49.160;8.580;2023-05-10T05:03:12;14.70;99.90
46490;DHT22;32204;49.160;8.580;2023-05-10T05:05:37;14.80;99.90
46490;DHT22;32204;49.160;8.580;2023-05-10T05:08:03;14.90;99.90
46490;DHT22;32204;49.160;8.580;2023-05-10T05:10:29;14.90;99.90
46490;DHT22;32204;49.160;8.580;2023-05-10T05:12:55;14.80;99.90
46490;DHT22;32204;49.160;8.580;2023-05-10T05:15:20;14.80;99.90
46490;DHT22;32204;49.160;8.580;2023-05-10T05:17:46;14.80;99.90
46490;DHT22;32204;49.160;8.580;2023-05-10T05:20:12;14.80;99.90
46490;DHT22;32204;49.160;8.580;2023-05-10T05:22:38;14.80;99.90
46490;DHT22;32204;49.160;8.580;2023-05-10T05:25:04;14.90;99.90
46490;DHT22;32204;49.160;8.580;2023-05-10T05:27:31;15.00;99.90
46490;DHT22;32204;49.160;8.580;2023-05-10T05:29:57;15.00;99.90
46490;DHT22;32204;49.160;8.580;2023-05-10T05:32:23;15.10;99.90
46490;DHT22;32204;49.160;8.580;2023-05-10T05:34:48;15.00;99.90
46490;DHT22;32204;49.160;8.580;2023-05-10T05:37:19;15.10;99.90
46490;DHT22;32204;49.160;8.580;2023-05-10T05:39:45;15.10;99.90
46490;DHT22;32204;49.160;8.580;2023-05-10T05:42:11;15.20;99.90
46490;DHT22;32204;49.160;8.580;2023-05-10T05:44:38;15.20;99.90
46490;DHT22;32204;49.160;8.580;2023-05-10T05:47:04;15.20;99.90
46490;DHT22;32204;49.160;8.580;2023-05-10T05:49:30;15.10;99.90
46490;DHT22;32204;49.160;8.580;2023-05-10T05:51:59;15.00;99.90
46490;DHT22;32204;49.160;8.580;2023-05-10T05:54:26;15.00;99.90
46490;DHT22;32204;49.160;8.580;2023-05-10T05:56:54;15.00;99.90
46490;DHT22;32204;49.160;8.580;2023-05-10T05:59:21;15.00;99.90
46490;DHT22;32204;49.160;8.580;2023-05-10T06:01:46;15.00;99.90
46490;DHT22;32204;49.160;8.580;2023-05-10T06:04:12;15.10;99.90
46490;DHT22;32204;49.160;8.580;2023-05-10T06:06:38;15.10;99.90
46490;DHT22;32204;49.160;8.580;2023-05-10T06:09:03;15.00;99.90
46490;DHT22;32204;49.160;8.580;2023-05-10T06:11:29;14.90;99.90
46490;DHT22;32204;49.160;8.580;2023-05-10T06:13:57;15.00;99.90
46490;DHT22;32204;49.160;8.580;2023-05-10T06:16:23;15.00;99.90
46490;DHT22;32204;49.160;8.580;2023-05-10T06:18:50;15.00;99.90
46490;DHT22;32204;49.160;8.580;2023-05-10T06:21:16;15.10;99.90
46490;DHT22;32204;49.160;8.580;2023-05-10T06:23:42;15.00;99.90
46490;DHT22;32204;49.160;8.580;2023-05-10T06:26:07;15.00;99.90
46490;DHT22;32204;49.160;8.580;2023-05-10T06:28:33;15.00;99.90
46490;DHT22;32204;49.160;8.580;2023-05-10T06:30:59;15.10;99.90
46490;DHT22;32204;49.160;8.580;2023-05-10T06:33:25;15.00;99.90
46490;DHT22;32204;49.160;8.580;2023-05-10T06:35:51;15.10;99.90
46490;DHT22;32204;49.160;8.580;2023-05-10T06:38:17;15.10;99.90
46490;DHT22;32204;49.160;8.580;2023-05-10T06:40:43;15.00;99.90
46490;DHT22;32204;49.160;8.580;2023-05-10T06:43:09;15.00;99.90
46490;DHT22;32204;49.160;8.580;2023-05-10T06:45:35;15.00;99.90
46490;DHT22;32204;49.160;8.580;2023-05-10T06:48:01;15.10;99.90
46490;DHT22;32204;49.160;8.580;2023-05-10T06:50:26;15.20;99.90
46490;DHT22;32204;49.160;8.580;2023-05-10T06:52:52;15.30;99.90
46490;DHT22;32204;49.160;8.580;2023-05-10T06:55:17;15.30;99.90
46490;DHT22;32204;49.160;8.580;2023-05-10T06:57:43;15.30;99.90
46490;DHT22;32204;49.160;8.580;2023-05-10T07:00:09;15.30;99.90
46490;DHT22;32204;49.160;8.580;2023-05-10T07:02:35;15.40;99.90
46490;DHT22;32204;49.160;8.580;2023-05-10T07:05:01;15.40;99.90
46490;DHT22;32204;49.160;8.580;2023-05-10T07:07:27;15.30;99.90
46490;DHT22;32204;49.160;8.580;2023-05-10T07:09:53;15.20;99.90
46490;DHT22;32204;49.160;8.580;2023-05-10T07:12:19;15.20;99.90
46490;DHT22;32204;49.160;8.580;2023-05-10T07:14:45;15.10;99.90
46490;DHT22;32204;49.160;8.580;2023-05-10T07:17:11;15.10;99.90
46490;DHT22;32204;49.160;8.580;2023-05-10T07:19:36;15.10;99.90
46490;DHT22;32204;49.160;8.580;2023-05-10T07:22:02;15.10;99.90
46490;DHT22;32204;49.160;8.580;2023-05-10T07:24:28;15.10;99.90
46490;DHT22;32204;49.160;8.580;2023-05-10T07:26:53;15.20;99.90
46490;DHT22;32204;49.160;8.580;2023-05-10T07:29:19;15.40;99.90
46490;DHT22;32204;49.160;8.580;2023-05-10T07:31:44;15.40;99.90
46490;DHT22;32204;49.160;8.580;2023-05-10T07:34:10;15.60;99.90
46490;DHT22;32204;49.160;8.580;2023-05-10T07:36:35;15.70;99.90
46490;DHT22;32204;49.160;8.580;2023-05-10T07:39:01;15.80;99.90
46490;DHT22;32204;49.160;8.580;2023-05-10T07:41:27;16.00;99.90
46490;DHT22;32204;49.160;8.580;2023-05-10T07:43:53;16.00;99.90
46490;DHT22;32204;49.160;8.580;2023-05-10T07:46:18;16.10;99.90
46490;DHT22;32204;49.160;8.580;2023-05-10T07:48:45;16.10;99.90
46490;DHT22;32204;49.160;8.580;2023-05-10T07:51:10;16.10;99.90
46490;DHT22;32204;49.160;8.580;2023-05-10T07:53:37;16.10;99.90
46490;DHT22;32204;49.160;8.580;2023-05-10T07:56:21;16.10;99.90
46490;DHT22;32204;49.160;8.580;2023-05-10T07:58:47;16.20;99.90
46490;DHT22;32204;49.160;8.580;2023-05-10T08:01:13;16.10;99.90
46490;DHT22;32204;49.160;8.580;2023-05-10T08:03:38;16.20;99.90
46490;DHT22;32204;49.160;8.580;2023-05-10T08:06:04;16.20;99.90
46490;DHT22;32204;49.160;8.580;2023-05-10T08:08:30;16.20;99.90
46490;DHT22;32204;49.160;8.580;2023-05-10T08:10:55;16.10;99.90
46490;DHT22;32204;49.160;8.580;2023-05-10T08:13:21;16.00;99.90
46490;DHT22;32204;49.160;8.580;2023-05-10T08:15:46;16.10;99.90
46490;DHT22;32204;49.160;8.580;2023-05-10T08:18:12;16.10;99.90
46490;DHT22;32204;49.160;8.580;2023-05-10T08:20:38;16.10;99.90
46490;DHT22;32204;49.160;8.580;2023-05-10T08:23:03;16.10;99.90
46490;DHT22;32204;49.160;8.580;2023-05-10T08:25:29;16.00;99.90
46490;DHT22;32204;49.160;8.580;2023-05-10T08:27:54;15.90;99.90
46490;DHT22;32204;49.160;8.580;2023-05-10T08:30:20;15.90;99.90
46490;DHT22;32204;49.160;8.580;2023-05-10T08:32:46;16.00;99.90
46490;DHT22;32204;49.160;8.580;2023-05-10T08:35:11;16.00;99.90
46490;DHT22;32204;49.160;8.580;2023-05-10T08:37:37;16.00;99.90
46490;DHT22;32204;49.160;8.580;2023-05-10T08:40:03;16.10;99.90
46490;DHT22;32204;49.160;8.580;2023-05-10T08:42:30;16.20;99.90
46490;DHT22;32204;49.160;8.580;2023-05-10T08:44:57;16.20;82.70
46490;DHT22;32204;49.160;8.580;2023-05-10T08:47:23;16.20;98.80
46490;DHT22;32204;49.160;8.580;2023-05-10T08:49:50;16.20;99.90
46490;DHT22;32204;49.160;8.580;2023-05-10T08:52:17;16.30;99.90
46490;DHT22;32204;49.160;8.580;2023-05-10T08:54:43;16.60;99.90
46490;DHT22;32204;49.160;8.580;2023-05-10T08:57:10;16.60;1.00
46490;DHT22;32204;49.160;8.580;2023-05-10T08:59:36;16.60;1.00
46490;DHT22;32204;49.160;8.580;2023-05-10T09:02:04;16.70;1.00
46490;DHT22;32204;49.160;8.580;2023-05-10T09:04:31;16.80;1.00
46490;DHT22;32204;49.160;8.580;2023-05-10T09:06:57;16.90;1.00
46490;DHT22;32204;49.160;8.580;2023-05-10T09:09:23;16.90;1.00
46490;DHT22;32204;49.160;8.580;2023-05-10T09:11:51;17.10;99.90
46490;DHT22;32204;49.160;8.580;2023-05-10T09:14:17;17.20;99.90
46490;DHT22;32204;49.160;8.580;2023-05-10T09:16:44;17.50;99.90
46490;DHT22;32204;49.160;8.580;2023-05-10T09:19:10;17.70;99.90
46490;DHT22;32204;49.160;8.580;2023-05-10T09:21:36;17.90;99.90
46490;DHT22;32204;49.160;8.580;2023-05-10T09:24:06;17.60;1.00
46490;DHT22;32204;49.160;8.580;2023-05-10T09:26:32;17.70;99.90
46490;DHT22;32204;49.160;8.580;2023-05-10T09:28:59;17.80;99.90
46490;DHT22;32204;49.160;8.580;2023-05-10T09:31:47;17.60;47.90
46490;DHT22;32204;49.160;8.580;2023-05-10T09:34:20;17.40;54.60
46490;DHT22;32204;49.160;8.580;2023-05-10T09:36:56;17.30;99.90
46490;DHT22;32204;49.160;8.580;2023-05-10T09:39:36;17.30;99.90
46490;DHT22;32204;49.160;8.580;2023-05-10T09:42:04;17.40;1.00
46490;DHT22;32204;49.160;8.580;2023-05-10T09:44:31;17.50;1.00
46490;DHT22;32204;49.160;8.580;2023-05-10T09:46:58;17.70;99.90
46490;DHT22;32204;49.160;8.580;2023-05-10T09:49:23;17.80;99.90
46490;DHT22;32204;49.160;8.580;2023-05-10T09:52:05;17.80;1.00
46490;DHT22;32204;49.160;8.580;2023-05-10T09:54:31;17.80;1.00
46490;DHT22;32204;49.160;8.580;2023-05-10T09:56:57;17.90;99.90
46490;DHT22;32204;49.160;8.580;2023-05-10T09:59:25;18.20;20.80
46490;DHT22;32204;49.160;8.580;2023-05-10T10:01:52;18.20;1.00
46490;DHT22;32204;49.160;8.580;2023-05-10T10:04:20;18.20;99.90
46490;DHT22;32204;49.160;8.580;2023-05-10T10:06:46;18.10;99.90
46490;DHT22;32204;49.160;8.580;2023-05-10T10:09:12;18.00;99.90
46490;DHT22;32204;49.160;8.580;2023-05-10T10:11:39;17.80;99.90
46490;DHT22;32204;49.160;8.580;2023-05-10T10:14:05;17.40;85.90
46490;DHT22;32204;49.160;8.580;2023-05-10T10:16:32;17.10;1.00
46490;DHT22;32204;49.160;8.580;2023-05-10T10:18:57;17.00;99.90
46490;DHT22;32204;49.160;8.580;2023-05-10T10:21:23;16.90;13.50
46490;DHT22;32204;49.160;8.580;2023-05-10T10:23:50;16.80;57.90
46490;DHT22;32204;49.160;8.580;2023-05-10T10:26:17;16.70;1.00
46490;DHT22;32204;49.160;8.580;2023-05-10T10:32:08;16.70;1.00
46490;DHT22;32204;49.160;8.580;2023-05-10T10:34:36;16.70;99.90
46490;DHT22;32204;49.160;8.580;2023-05-10T10:37:05;16.90;99.90
46490;DHT22;32204;49.160;8.580;2023-05-10T10:39:31;17.10;99.90
46490;DHT22;32204;49.160;8.580;2023-05-10T10:41:58;17.20;1.00
46490;DHT22;32204;49.160;8.580;2023-05-10T10:44:26;17.30;99.90
46490;DHT22;32204;49.160;8.580;2023-05-10T11:05:44;17.70;99.90
46490;DHT22;32204;49.160;8.580;2023-05-10T11:11:02;17.30;1.00
46490;DHT22;32204;49.160;8.580;2023-05-10T11:13:29;17.10;99.90
46490;DHT22;32204;49.160;8.580;2023-05-10T11:15:55;17.10;99.90
46490;DHT22;32204;49.160;8.580;2023-05-10T11:18:27;16.90;1.00
46490;DHT22;32204;49.160;8.580;2023-05-10T11:21:00;16.80;99.90
46490;DHT22;32204;49.160;8.580;2023-05-10T11:26:09;16.80;99.90
46490;DHT22;32204;49.160;8.580;2023-05-10T11:28:41;16.70;1.00
46490;DHT22;32204;49.160;8.580;2023-05-10T11:31:06;16.60;99.90
46490;DHT22;32204;49.160;8.580;2023-05-10T11:33:45;16.30;99.90
46490;DHT22;32204;49.160;8.580;2023-05-10T11:36:16;16.20;99.90
46490;DHT22;32204;49.160;8.580;2023-05-10T11:38:42;16.10;99.90
46490;DHT22;32204;49.160;8.580;2023-05-10T11:41:11;16.10;99.90
46490;DHT22;32204;49.160;8.580;2023-05-10T11:43:39;16.10;99.90
46490;DHT22;32204;49.160;8.580;2023-05-10T11:46:06;16.20;99.90
46490;DHT22;32204;49.160;8.580;2023-05-10T11:48:32;16.20;99.90
46490;DHT22;32204;49.160;8.580;2023-05-10T11:50:58;16.40;99.90
46490;DHT22;32204;49.160;8.580;2023-05-10T11:53:28;16.40;99.90
46490;DHT22;32204;49.160;8.580;2023-05-10T11:55:54;16.50;99.90
46490;DHT22;32204;49.160;8.580;2023-05-10T11:58:20;16.70;1.00
46490;DHT22;32204;49.160;8.580;2023-05-10T12:00:48;16.90;99.90
46490;DHT22;32204;49.160;8.580;2023-05-10T12:03:13;17.00;1.00
46490;DHT22;32204;49.160;8.580;2023-05-10T12:05:39;17.20;86.20
46490;DHT22;32204;49.160;8.580;2023-05-10T12:08:14;17.40;99.90
46490;DHT22;32204;49.160;8.580;2023-05-10T12:10:41;17.50;1.00
46490;DHT22;32204;49.160;8.580;2023-05-10T12:13:21;17.40;10.80
46490;DHT22;32204;49.160;8.580;2023-05-10T12:15:47;17.30;99.90
46490;DHT22;32204;49.160;8.580;2023-05-10T12:18:14;17.50;99.90
46490;DHT22;32204;49.160;8.580;2023-05-10T12:20:40;17.50;1.00
46490;DHT22;32204;49.160;8.580;2023-05-10T12:23:08;17.40;99.90
46490;DHT22;32204;49.160;8.580;2023-05-10T12:25:36;17.50;1.00
46490;DHT22;32204;49.160;8.580;2023-05-10T12:28:07;17.60;49.40
46490;DHT22;32204;49.160;8.580;2023-05-10T12:30:34;17.80;99.90
46490;DHT22;32204;49.160;8.580;2023-05-10T12:33:13;17.90;99.90
46490;DHT22;32204;49.160;8.580;2023-05-10T12:35:54;17.90;99.90
46490;DHT22;32204;49.160;8.580;2023-05-10T12:38:39;18.20;99.90
46490;DHT22;32204;49.160;8.580;2023-05-10T12:41:12;18.20;99.90
46490;DHT22;32204;49.160;8.580;2023-05-10T12:43:38;18.30;99.90
46490;DHT22;32204;49.160;8.580;2023-05-10T12:46:08;18.40;12.30
46490;DHT22;32204;49.160;8.580;2023-05-10T12:48:35;18.20;1.00
46490;DHT22;32204;49.160;8.580;2023-05-10T12:51:02;18.10;1.00
46490;DHT22;32204;49.160;8.580;2023-05-10T12:53:28;18.00;1.00
46490;DHT22;32204;49.160;8.580;2023-05-10T12:55:53;18.00;5.90
46490;DHT22;32204;49.160;8.580;2023-05-10T12:58:19;18.10;1.00
46490;DHT22;32204;49.160;8.580;2023-05-10T13:00:45;18.10;1.00
46490;DHT22;32204;49.160;8.580;2023-05-10T13:03:11;18.10;99.90
46490;DHT22;32204;49.160;8.580;2023-05-10T13:05:37;18.00;99.90
46490;DHT22;32204;49.160;8.580;2023-05-10T13:08:03;17.90;99.90
46490;DHT22;32204;49.160;8.580;2023-05-10T13:10:29;17.90;99.90
46490;DHT22;32204;49.160;8.580;2023-05-10T13:12:56;18.10;99.90
46490;DHT22;32204;49.160;8.580;2023-05-10T13:15:22;18.40;99.90
46490;DHT22;32204;49.160;8.580;2023-05-10T13:17:47;18.40;99.90
46490;DHT22;32204;49.160;8.580;2023-05-10T13:20:13;18.50;99.90
46490;DHT22;32204;49.160;8.580;2023-05-10T13:22:40;18.40;99.90
46490;DHT22;32204;49.160;8.580;2023-05-10T13:25:06;18.30;99.90
46490;DHT22;32204;49.160;8.580;2023-05-10T13:27:32;18.30;99.90
46490;DHT22;32204;49.160;8.580;2023-05-10T13:29:57;18.40;99.90
46490;DHT22;32204;49.160;8.580;2023-05-10T13:32:25;18.60;99.90
46490;DHT22;32204;49.160;8.580;2023-05-10T13:34:51;18.70;99.90
46490;DHT22;32204;49.160;8.580;2023-05-10T13:37:16;18.80;99.90
46490;DHT22;32204;49.160;8.580;2023-05-10T13:39:42;19.00;99.90
46490;DHT22;32204;49.160;8.580;2023-05-10T13:42:07;19.10;99.90
46490;DHT22;32204;49.160;8.580;2023-05-10T13:44:33;18.90;62.20
46490;DHT22;32204;49.160;8.580;2023-05-10T13:46:59;18.90;99.90
46490;DHT22;32204;49.160;8.580;2023-05-10T13:49:24;18.90;99.90
46490;DHT22;32204;49.160;8.580;2023-05-10T13:51:50;19.20;96.20
46490;DHT22;32204;49.160;8.580;2023-05-10T13:54:16;19.20;60.90
46490;DHT22;32204;49.160;8.580;2023-05-10T13:56:44;19.00;80.30
46490;DHT22;32204;49.160;8.580;2023-05-10T13:59:10;18.90;64.30
46490;DHT22;32204;49.160;8.580;2023-05-10T14:01:36;18.90;27.70
46490;DHT22;32204;49.160;8.580;2023-05-10T14:04:01;18.90;39.60
46490;DHT22;32204;49.160;8.580;2023-05-10T14:06:27;18.80;21.10
46490;DHT22;32204;49.160;8.580;2023-05-10T14:08:53;18.70;20.50
46490;DHT22;32204;49.160;8.580;2023-05-10T14:11:19;18.80;24.70
46490;DHT22;32204;49.160;8.580;2023-05-10T14:13:45;18.80;23.10
46490;DHT22;32204;49.160;8.580;2023-05-10T14:16:10;18.90;81.40
46490;DHT22;32204;49.160;8.580;2023-05-10T14:18:37;18.90;22.80
46490;DHT22;32204;49.160;8.580;2023-05-10T14:21:03;19.00;38.30
46490;DHT22;32204;49.160;8.580;2023-05-10T14:23:29;19.20;24.20
46490;DHT22;32204;49.160;8.580;2023-05-10T14:25:54;19.30;1.00
46490;DHT22;32204;49.160;8.580;2023-05-10T14:28:20;19.30;1.00
46490;DHT22;32204;49.160;8.580;2023-05-10T14:30:46;19.30;1.00
46490;DHT22;32204;49.160;8.580;2023-05-10T14:33:12;19.30;1.00
46490;DHT22;32204;49.160;8.580;2023-05-10T14:35:38;19.30;1.00
46490;DHT22;32204;49.160;8.580;2023-05-10T14:38:04;19.20;1.00
46490;DHT22;32204;49.160;8.580;2023-05-10T14:40:30;19.30;1.00
46490;DHT22;32204;49.160;8.580;2023-05-10T14:42:55;19.30;1.00
46490;DHT22;32204;49.160;8.580;2023-05-10T14:45:22;19.40;1.00
46490;DHT22;32204;49.160;8.580;2023-05-10T14:47:48;19.50;1.00
46490;DHT22;32204;49.160;8.580;2023-05-10T14:50:14;19.50;1.00
46490;DHT22;32204;49.160;8.580;2023-05-10T14:52:41;19.60;1.00
46490;DHT22;32204;49.160;8.580;2023-05-10T14:55:07;19.70;1.00
46490;DHT22;32204;49.160;8.580;2023-05-10T14:57:33;19.60;1.00
46490;DHT22;32204;49.160;8.580;2023-05-10T14:59:59;19.60;1.00
46490;DHT22;32204;49.160;8.580;2023-05-10T15:02:24;19.60;1.00
46490;DHT22;32204;49.160;8.580;2023-05-10T15:04:50;19.50;1.00
46490;DHT22;32204;49.160;8.580;2023-05-10T15:07:16;19.50;1.00
46490;DHT22;32204;49.160;8.580;2023-05-10T15:09:46;19.50;1.00
46490;DHT22;32204;49.160;8.580;2023-05-10T15:12:12;19.40;1.00
46490;DHT22;32204;49.160;8.580;2023-05-10T15:14:37;19.40;1.00
46490;DHT22;32204;49.160;8.580;2023-05-10T15:17:05;19.30;1.00
46490;DHT22;32204;49.160;8.580;2023-05-10T15:19:31;19.30;1.00
46490;DHT22;32204;49.160;8.580;2023-05-10T15:21:58;19.50;1.00
46490;DHT22;32204;49.160;8.580;2023-05-10T15:24:24;19.60;1.00
46490;DHT22;32204;49.160;8.580;2023-05-10T15:26:49;19.60;1.00
46490;DHT22;32204;49.160;8.580;2023-05-10T15:29:15;19.60;1.00
46490;DHT22;32204;49.160;8.580;2023-05-10T15:31:46;19.70;1.00
46490;DHT22;32204;49.160;8.580;2023-05-10T15:34:12;19.90;1.00
46490;DHT22;32204;49.160;8.580;2023-05-10T15:36:38;19.90;1.00
46490;DHT22;32204;49.160;8.580;2023-05-10T15:39:03;19.80;1.00
46490;DHT22;32204;49.160;8.580;2023-05-10T15:41:29;19.70;1.00
46490;DHT22;32204;49.160;8.580;2023-05-10T15:43:55;19.70;1.00
46490;DHT22;32204;49.160;8.580;2023-05-10T15:46:21;19.50;1.00
46490;DHT22;32204;49.160;8.580;2023-05-10T15:48:46;19.60;1.00
46490;DHT22;32204;49.160;8.580;2023-05-10T15:51:12;19.60;1.00
46490;DHT22;32204;49.160;8.580;2023-05-10T15:53:38;19.50;1.00
46490;DHT22;32204;49.160;8.580;2023-05-10T15:56:04;19.30;1.00
46490;DHT22;32204;49.160;8.580;2023-05-10T15:58:30;19.10;1.00
46490;DHT22;32204;49.160;8.580;2023-05-10T16:00:56;19.00;1.00
46490;DHT22;32204;49.160;8.580;2023-05-10T16:03:22;19.00;1.00
46490;DHT22;32204;49.160;8.580;2023-05-10T16:05:47;19.00;1.00
46490;DHT22;32204;49.160;8.580;2023-05-10T16:08:13;19.10;1.00
46490;DHT22;32204;49.160;8.580;2023-05-10T16:10:39;19.20;1.00
46490;DHT22;32204;49.160;8.580;2023-05-10T16:13:05;19.30;1.00
46490;DHT22;32204;49.160;8.580;2023-05-10T16:15:30;19.40;1.00